createdAt,value
2022-12-24T00:02:08.921Z,1.70
2022-12-24T00:05:10.834Z,1.73
2022-12-24T00:08:12.267Z,2.20
2022-12-24T00:11:14.167Z,2.00
2022-12-24T00:14:15.601Z,2.23
2022-12-24T00:17:17.119Z,2.07
2022-12-24T00:20:19.641Z,1.90
2022-12-24T00:23:21.308Z,1.90
2022-12-24T00:26:22.795Z,1.97
2022-12-24T00:29:24.291Z,1.60
2022-12-24T00:32:25.725Z,1.83
2022-12-24T00:35:27.121Z,1.60
2022-12-24T00:38:28.499Z,1.93
2022-12-24T00:41:30.915Z,1.60
2022-12-24T00:44:32.306Z,1.80
2022-12-24T00:47:33.713Z,1.97
2022-12-24T00:50:35.135Z,2.10
2022-12-24T00:53:36.534Z,1.90
2022-12-24T00:56:37.937Z,1.90
2022-12-24T00:59:39.302Z,1.83
2022-12-24T01:02:40.913Z,2.23
2022-12-24T01:05:42.403Z,1.83
2022-12-24T01:08:44.130Z,2.07
2022-12-24T01:11:46.239Z,2.00
2022-12-24T01:14:47.787Z,1.67
2022-12-24T01:17:49.202Z,1.80
2022-12-24T01:20:59.448Z,2.00
2022-12-24T01:24:00.846Z,1.90
2022-12-24T01:27:02.236Z,1.60
2022-12-24T01:30:05.974Z,1.60
2022-12-24T01:33:07.402Z,1.57
2022-12-24T01:36:09.218Z,2.20
2022-12-24T01:39:10.602Z,1.90
2022-12-24T01:42:40.442Z,1.83
2022-12-24T01:45:54.523Z,2.07
2022-12-24T01:48:59.389Z,1.97
2022-12-24T01:52:09.121Z,1.60
2022-12-24T01:55:16.765Z,1.83
2022-12-24T01:58:21.023Z,1.73
2022-12-24T02:01:22.889Z,2.77
2022-12-24T02:04:50.858Z,1.90
2022-12-24T02:07:52.769Z,1.97
2022-12-24T02:10:54.184Z,1.90
2022-12-24T02:14:00.085Z,1.87
2022-12-24T02:17:31.713Z,1.90
2022-12-24T02:20:56.795Z,1.60
2022-12-24T02:24:33.871Z,2.30
2022-12-24T02:27:38.544Z,1.87
2022-12-24T02:30:50.917Z,2.00
2022-12-24T02:34:06.276Z,1.80
2022-12-24T02:37:15.951Z,1.53
2022-12-24T02:40:27.427Z,1.83
2022-12-24T02:43:37.152Z,2.27
2022-12-24T02:46:38.617Z,1.90
2022-12-24T02:49:44.295Z,1.90
2022-12-24T02:52:47.088Z,1.87
2022-12-24T02:56:05.830Z,2.00
2022-12-24T02:59:28.905Z,2.33
2022-12-24T03:02:47.997Z,2.97
2022-12-24T03:05:59.987Z,2.03
2022-12-24T03:09:14.724Z,2.17
2022-12-24T03:12:22.571Z,2.63
2022-12-24T03:15:25.634Z,2.10
2022-12-24T03:18:28.920Z,2.20
2022-12-24T03:21:36.370Z,2.50
2022-12-24T03:24:38.265Z,2.63
2022-12-24T03:27:40.649Z,1.90
2022-12-24T03:30:43.720Z,2.10
2022-12-24T03:33:45.650Z,2.30
2022-12-24T03:36:48.253Z,2.50
2022-12-24T03:39:49.745Z,2.50
2022-12-24T03:42:51.179Z,2.73
2022-12-24T03:45:52.599Z,2.30
2022-12-24T03:48:54.555Z,2.40
2022-12-24T03:51:56.105Z,2.40
2022-12-24T03:54:57.555Z,2.40
2022-12-24T03:57:58.964Z,2.60
2022-12-24T04:01:00.417Z,2.63
2022-12-24T04:04:01.821Z,2.33
2022-12-24T04:07:04.288Z,2.50
2022-12-24T04:10:06.164Z,2.53
2022-12-24T04:13:07.554Z,2.67
2022-12-24T04:16:14.684Z,2.77
2022-12-24T04:19:16.100Z,2.27
2022-12-24T04:22:18.001Z,2.77
2022-12-24T04:25:19.400Z,2.60
2022-12-24T04:28:20.895Z,2.90
2022-12-24T04:31:22.432Z,3.13
2022-12-24T04:34:23.923Z,2.80
2022-12-24T04:37:25.383Z,3.10
2022-12-24T04:40:26.779Z,2.40
2022-12-24T04:43:29.283Z,2.83
2022-12-24T04:46:31.422Z,2.97
2022-12-24T04:49:32.945Z,2.50
2022-12-24T04:52:34.876Z,2.73
2022-12-24T04:55:36.264Z,2.70
2022-12-24T04:58:37.691Z,3.33
2022-12-24T05:01:39.166Z,2.70
2022-12-24T05:04:40.714Z,3.17
2022-12-24T05:07:42.115Z,3.13
2022-12-24T05:10:43.548Z,4.10
2022-12-24T05:13:47.704Z,2.57
2022-12-24T05:16:49.336Z,2.50
2022-12-24T05:19:50.751Z,3.00
2022-12-24T05:23:10.729Z,3.63
2022-12-24T05:26:23.967Z,3.17
2022-12-24T05:29:25.551Z,3.23
2022-12-24T05:32:28.571Z,3.20
2022-12-24T05:35:29.967Z,3.50
2022-12-24T05:38:31.364Z,3.37
2022-12-24T05:41:33.019Z,3.47
2022-12-24T05:44:34.423Z,3.80
2022-12-24T05:47:42.910Z,3.60
2022-12-24T05:50:44.839Z,2.90
2022-12-24T05:53:46.964Z,2.93
2022-12-24T05:56:48.362Z,3.20
2022-12-24T05:59:49.835Z,3.30
2022-12-24T06:02:51.332Z,3.63
2022-12-24T06:06:04.715Z,3.37
2022-12-24T06:09:06.201Z,3.30
2022-12-24T06:12:07.668Z,3.10
2022-12-24T06:15:09.611Z,3.50
2022-12-24T06:18:11.056Z,3.20
2022-12-24T06:21:14.589Z,3.10
2022-12-24T06:24:16.022Z,2.93
2022-12-24T06:27:17.423Z,3.43
2022-12-24T06:30:19.039Z,3.60
2022-12-24T06:33:20.490Z,3.63
2022-12-24T06:36:24.913Z,3.30
2022-12-24T06:39:26.319Z,3.63
2022-12-24T06:42:27.701Z,3.00
2022-12-24T06:45:29.082Z,3.60
2022-12-24T06:48:31.089Z,3.20
2022-12-24T06:51:32.467Z,3.00
2022-12-24T06:54:33.867Z,3.47
2022-12-24T06:57:35.253Z,3.27
2022-12-24T07:00:37.011Z,3.23
2022-12-24T07:03:38.882Z,3.50
2022-12-24T07:06:41.960Z,3.50
2022-12-24T07:09:43.372Z,3.80
2022-12-24T07:12:44.979Z,3.13
2022-12-24T07:15:46.555Z,3.00
2022-12-24T07:18:48.044Z,3.30
2022-12-24T07:21:49.990Z,3.83
2022-12-24T07:24:51.453Z,4.03
2022-12-24T07:27:52.888Z,3.63
2022-12-24T07:30:54.722Z,3.43
2022-12-24T07:33:56.174Z,3.30
2022-12-24T07:36:57.686Z,2.63
2022-12-24T07:39:59.271Z,3.43
2022-12-24T07:43:00.742Z,3.47
2022-12-24T07:46:02.364Z,3.20
2022-12-24T07:49:03.857Z,3.57
2022-12-24T07:52:05.339Z,2.90
2022-12-24T07:55:07.094Z,3.83
2022-12-24T07:58:08.530Z,3.47
2022-12-24T08:01:13.709Z,2.97
2022-12-24T08:04:15.200Z,3.77
2022-12-24T08:07:16.596Z,3.33
2022-12-24T08:10:18.258Z,3.63
2022-12-24T08:13:19.643Z,3.77
2022-12-24T08:16:21.108Z,3.23
2022-12-24T08:19:23.304Z,3.53
2022-12-24T08:22:24.802Z,3.50
2022-12-24T08:25:26.207Z,3.17
2022-12-24T08:28:27.838Z,3.30
2022-12-24T08:31:29.817Z,3.07
2022-12-24T08:34:31.250Z,3.47
2022-12-24T08:37:32.774Z,3.57
2022-12-24T08:40:34.285Z,3.23
2022-12-24T08:43:35.745Z,3.23
2022-12-24T08:46:37.303Z,3.80
2022-12-24T08:49:39.961Z,3.13
2022-12-24T08:52:41.399Z,3.47
2022-12-24T08:55:42.947Z,3.77
2022-12-24T08:58:44.336Z,3.63
2022-12-24T09:01:45.901Z,3.40
2022-12-24T09:04:47.419Z,3.10
2022-12-24T09:07:48.847Z,3.97
2022-12-24T09:10:51.344Z,3.27
2022-12-24T09:13:54.312Z,4.17
2022-12-24T09:16:57.853Z,3.57
2022-12-24T09:19:59.880Z,3.30
2022-12-24T09:23:01.433Z,4.00
2022-12-24T09:26:12.152Z,3.47
2022-12-24T09:29:13.554Z,3.47
2022-12-24T09:32:14.991Z,3.57
2022-12-24T09:35:16.407Z,4.20
2022-12-24T09:38:18.386Z,3.77
2022-12-24T09:41:22.864Z,3.07
2022-12-24T09:44:49.006Z,3.80
2022-12-24T09:47:55.331Z,3.33
2022-12-24T09:51:08.614Z,3.20
2022-12-24T09:54:20.714Z,3.63
2022-12-24T09:57:43.054Z,3.80
2022-12-24T10:00:49.724Z,3.97
2022-12-24T10:03:51.894Z,3.67
2022-12-24T10:07:17.091Z,3.40
2022-12-24T10:10:24.351Z,3.80
2022-12-24T10:13:59.853Z,3.97
2022-12-24T10:17:27.280Z,2.93
2022-12-24T10:20:45.586Z,4.00
2022-12-24T10:23:57.715Z,3.80
2022-12-24T10:27:06.786Z,3.43
2022-12-24T10:30:17.513Z,3.67
2022-12-24T10:33:42.818Z,3.03
2022-12-24T10:36:44.282Z,3.30
2022-12-24T10:39:45.957Z,3.43
2022-12-24T10:42:51.412Z,3.33
2022-12-24T10:45:57.218Z,3.67
2022-12-24T10:49:02.157Z,3.17
2022-12-24T10:52:10.298Z,3.57
2022-12-24T10:55:17.335Z,3.53
2022-12-24T10:58:20.138Z,4.03
2022-12-24T11:01:48.938Z,3.43
2022-12-24T11:04:50.598Z,3.10
2022-12-24T11:08:03.382Z,3.63
2022-12-24T11:11:08.447Z,2.50
2022-12-24T11:14:15.907Z,2.70
2022-12-24T11:17:22.907Z,2.57
2022-12-24T11:20:28.084Z,2.77
2022-12-24T11:23:30.347Z,3.33
2022-12-24T11:26:31.891Z,3.17
2022-12-24T11:29:33.289Z,3.13
2022-12-24T11:32:34.823Z,3.13
2022-12-24T11:35:43.420Z,3.37
2022-12-24T11:38:53.541Z,3.10
2022-12-24T11:41:55.071Z,3.63
2022-12-24T11:44:58.057Z,2.67
2022-12-24T11:48:00.425Z,3.03
2022-12-24T11:51:07.888Z,3.17
2022-12-24T11:54:19.107Z,2.77
2022-12-24T11:57:25.128Z,3.20
2022-12-24T12:00:28.468Z,3.20
2022-12-24T12:03:35.235Z,3.90
2022-12-24T12:06:36.548Z,3.10
2022-12-24T12:09:43.018Z,3.20
2022-12-24T12:12:57.923Z,3.20
2022-12-24T12:16:25.823Z,3.40
2022-12-24T12:19:33.053Z,3.43
2022-12-24T12:22:58.553Z,3.63
2022-12-24T12:26:18.233Z,3.20
2022-12-24T12:29:45.206Z,3.90
2022-12-24T12:33:20.884Z,3.57
2022-12-24T12:36:43.553Z,3.30
2022-12-24T12:39:45.028Z,3.17
2022-12-24T12:43:19.257Z,3.30
2022-12-24T12:46:38.368Z,2.73
2022-12-24T12:49:53.489Z,3.30
2022-12-24T12:53:13.143Z,3.70
2022-12-24T12:56:23.931Z,4.10
2022-12-24T12:59:41.441Z,3.13
2022-12-24T13:02:50.359Z,3.77
2022-12-24T13:06:13.463Z,3.60
2022-12-24T13:09:42.179Z,3.50
2022-12-24T13:12:49.607Z,3.83
2022-12-24T13:16:00.286Z,3.27
2022-12-24T13:19:24.940Z,3.07
2022-12-24T13:22:26.633Z,3.37
2022-12-24T13:25:41.110Z,3.27
2022-12-24T13:28:43.367Z,2.70
2022-12-24T13:31:44.870Z,3.00
2022-12-24T13:34:54.933Z,3.27
2022-12-24T13:38:28.442Z,3.43
2022-12-24T13:41:41.334Z,3.57
2022-12-24T13:44:43.118Z,3.60
2022-12-24T13:47:44.621Z,3.33
2022-12-24T13:50:52.280Z,4.20
2022-12-24T13:53:59.450Z,3.40
2022-12-24T13:57:01.492Z,3.20
2022-12-24T14:00:09.190Z,3.30
2022-12-24T14:03:13.884Z,2.87
2022-12-24T14:06:27.660Z,2.90
2022-12-24T14:09:31.911Z,3.03
2022-12-24T14:12:47.857Z,2.77
2022-12-24T14:15:49.904Z,2.33
2022-12-24T14:19:10.129Z,2.43
2022-12-24T14:22:11.456Z,2.30
2022-12-24T14:25:17.419Z,2.73
2022-12-24T14:28:28.411Z,2.27
2022-12-24T14:31:29.857Z,2.53
2022-12-24T14:34:31.897Z,2.40
2022-12-24T14:37:34.951Z,2.10
2022-12-24T14:41:14.181Z,2.27
2022-12-24T14:44:35.460Z,2.63
2022-12-24T14:47:58.465Z,3.90
2022-12-24T14:51:23.147Z,4.80
2022-12-24T14:54:35.335Z,5.37
2022-12-24T14:57:36.800Z,6.17
2022-12-24T15:00:39.756Z,5.23
2022-12-24T15:03:41.310Z,4.47
2022-12-24T15:06:56.657Z,5.63
2022-12-24T15:09:58.237Z,4.67
2022-12-24T15:13:06.644Z,6.30
2022-12-24T15:16:13.785Z,6.03
2022-12-24T15:19:24.716Z,6.37
2022-12-24T15:22:31.232Z,6.07
2022-12-24T15:25:33.348Z,6.53
2022-12-24T15:28:39.121Z,6.23
2022-12-24T15:31:41.068Z,8.03
2022-12-24T15:34:45.324Z,8.97
2022-12-24T15:37:47.661Z,8.43
2022-12-24T15:40:50.081Z,8.60
2022-12-24T15:43:54.138Z,7.60
2022-12-24T15:47:04.699Z,10.03
2022-12-24T15:50:16.312Z,8.47
2022-12-24T15:53:22.596Z,8.27
2022-12-24T15:56:31.348Z,11.30
2022-12-24T15:59:38.089Z,8.80
2022-12-24T16:02:41.743Z,8.40
2022-12-24T16:05:43.537Z,8.07
2022-12-24T16:08:46.056Z,7.73
2022-12-24T16:11:47.559Z,7.50
2022-12-24T16:14:57.377Z,7.43
2022-12-24T16:17:58.801Z,7.97
2022-12-24T16:21:00.543Z,7.93
2022-12-24T16:24:16.276Z,8.07
2022-12-24T16:27:18.322Z,9.03
2022-12-24T16:30:21.490Z,10.93
2022-12-24T16:33:26.363Z,12.00
2022-12-24T16:36:29.639Z,12.00
2022-12-24T16:39:34.438Z,12.27
2022-12-24T16:42:54.303Z,11.73
2022-12-24T16:46:03.903Z,10.17
2022-12-24T16:49:05.366Z,8.20
2022-12-24T16:52:15.364Z,9.07
2022-12-24T16:55:16.875Z,10.20
2022-12-24T16:58:18.859Z,9.60
2022-12-24T17:01:20.348Z,9.50
2022-12-24T17:04:21.881Z,11.40
2022-12-24T17:07:23.349Z,11.90
2022-12-24T17:10:24.819Z,11.10
2022-12-24T17:13:26.646Z,10.87
2022-12-24T17:16:28.554Z,10.70
2022-12-24T17:19:30.007Z,11.10
2022-12-24T17:22:31.654Z,11.40
2022-12-24T17:25:35.780Z,9.97
2022-12-24T17:28:37.588Z,8.07
2022-12-24T17:31:40.507Z,8.90
2022-12-24T17:34:41.962Z,8.90
2022-12-24T17:37:44.822Z,8.10
2022-12-24T17:40:47.090Z,9.23
2022-12-24T17:43:48.691Z,8.53
2022-12-24T17:46:50.238Z,9.30
2022-12-24T17:49:51.669Z,8.87
2022-12-24T17:52:53.042Z,9.60
2022-12-24T17:55:54.502Z,9.77
2022-12-24T17:58:56.547Z,9.63
2022-12-24T18:01:58.030Z,9.80
2022-12-24T18:04:59.563Z,9.87
2022-12-24T18:08:00.963Z,10.60
2022-12-24T18:11:12.992Z,10.37
2022-12-24T18:14:15.236Z,10.13
2022-12-24T18:17:16.698Z,10.30
2022-12-24T18:20:20.145Z,9.53
2022-12-24T18:23:21.591Z,9.13
2022-12-24T18:26:28.228Z,8.80
2022-12-24T18:29:29.850Z,9.47
2022-12-24T18:32:32.029Z,9.67
2022-12-24T18:35:33.456Z,9.80
2022-12-24T18:38:35.312Z,9.90
2022-12-24T18:41:37.376Z,10.73
2022-12-24T18:44:38.922Z,10.83
2022-12-24T18:47:40.304Z,10.40
2022-12-24T18:50:41.846Z,9.97
2022-12-24T18:53:43.355Z,10.13
2022-12-24T18:56:44.741Z,10.53
2022-12-24T18:59:46.212Z,10.43
2022-12-24T19:02:48.452Z,10.67
2022-12-24T19:05:50.042Z,11.80
2022-12-24T19:09:00.804Z,12.83
2022-12-24T19:12:04.213Z,14.03
2022-12-24T19:15:06.409Z,12.67
2022-12-24T19:18:07.804Z,11.43
2022-12-24T19:21:12.119Z,12.30
2022-12-24T19:24:14.292Z,11.30
2022-12-24T19:27:15.688Z,11.00
2022-12-24T19:30:17.185Z,10.80
2022-12-24T19:33:18.623Z,10.30
2022-12-24T19:36:22.928Z,10.77
2022-12-24T19:39:31.699Z,11.50
2022-12-24T19:42:34.298Z,10.90
2022-12-24T19:45:35.807Z,12.53
2022-12-24T19:48:37.264Z,12.13
2022-12-24T19:51:39.191Z,11.27
2022-12-24T19:54:42.526Z,10.33
2022-12-24T19:57:44.187Z,8.70
2022-12-24T20:00:45.662Z,8.97
2022-12-24T20:03:48.643Z,7.90
2022-12-24T20:06:53.510Z,8.60
2022-12-24T20:09:59.607Z,7.93
2022-12-24T20:13:05.868Z,7.13
2022-12-24T20:16:12.726Z,7.47
2022-12-24T20:19:14.946Z,7.40
2022-12-24T20:22:16.417Z,6.50
2022-12-24T20:25:17.943Z,6.73
2022-12-24T20:28:19.379Z,6.20
2022-12-24T20:31:23.481Z,6.27
2022-12-24T20:34:25.170Z,6.60
2022-12-24T20:37:26.936Z,6.23
2022-12-24T20:40:28.333Z,6.60
2022-12-24T20:43:34.774Z,6.67
2022-12-24T20:46:38.950Z,6.60
2022-12-24T20:49:40.350Z,5.40
2022-12-24T20:52:41.970Z,5.70
2022-12-24T20:55:43.399Z,5.63
2022-12-24T20:58:46.620Z,4.90
2022-12-24T21:01:48.289Z,5.00
2022-12-24T21:04:49.803Z,5.63
2022-12-24T21:07:52.086Z,5.43
2022-12-24T21:11:13.538Z,5.00
2022-12-24T21:14:26.548Z,5.07
2022-12-24T21:17:29.580Z,4.63
2022-12-24T21:20:31.547Z,4.53
2022-12-24T21:23:32.969Z,4.20
2022-12-24T21:26:34.598Z,4.37
2022-12-24T21:29:36.140Z,3.80
2022-12-24T21:32:37.889Z,4.40
2022-12-24T21:35:39.388Z,4.00
2022-12-24T21:38:41.308Z,4.53
2022-12-24T21:41:42.719Z,4.90
2022-12-24T21:44:44.232Z,5.17
2022-12-24T21:47:45.631Z,5.00
2022-12-24T21:50:56.958Z,6.03
2022-12-24T21:54:17.100Z,5.50
2022-12-24T21:57:37.215Z,5.87
2022-12-24T22:00:38.832Z,6.23
2022-12-24T22:03:40.311Z,6.40
2022-12-24T22:07:00.543Z,6.93
2022-12-24T22:10:20.510Z,6.70
2022-12-24T22:13:22.727Z,7.70
2022-12-24T22:16:24.270Z,6.80
2022-12-24T22:19:25.772Z,6.73
2022-12-24T22:22:27.231Z,6.67
2022-12-24T22:25:29.828Z,6.07
2022-12-24T22:28:31.279Z,6.10
2022-12-24T22:31:32.815Z,6.40
2022-12-24T22:34:35.114Z,5.70
2022-12-24T22:37:36.547Z,6.17
2022-12-24T22:40:40.953Z,5.00
2022-12-24T22:43:44.472Z,4.07
2022-12-24T22:46:46.061Z,4.07
2022-12-24T22:49:48.209Z,3.47
2022-12-24T22:52:49.631Z,3.70
2022-12-24T22:55:56.372Z,4.13
2022-12-24T22:58:57.909Z,5.10
2022-12-24T23:01:59.631Z,4.57
2022-12-24T23:05:01.110Z,4.50
2022-12-24T23:08:03.201Z,4.80
2022-12-24T23:11:13.214Z,4.80
2022-12-24T23:14:38.355Z,4.50
2022-12-24T23:17:39.798Z,4.93
2022-12-24T23:20:47.066Z,4.27
2022-12-24T23:23:48.718Z,4.80
2022-12-24T23:26:50.148Z,3.97
2022-12-24T23:29:51.552Z,4.10
2022-12-24T23:32:52.939Z,3.43
2022-12-24T23:35:54.558Z,3.50
2022-12-24T23:38:56.098Z,3.70
2022-12-24T23:41:57.474Z,3.30
2022-12-24T23:44:58.853Z,3.73
2022-12-24T23:48:01.473Z,3.53
2022-12-24T23:51:09.883Z,3.37
2022-12-24T23:54:11.288Z,4.40
2022-12-24T23:57:12.736Z,4.27
